North Conway, NH

9:36 AM EST on December 03, 2016 (GMT -0500)
| | Change Station

Elev -9999 ft 0.00 °N, 0.00 °E | Updated

Partly Cloudy
Partly Cloudy
41 °F
Feels Like 32 °F
N
20
Wind Variable Wind from WNW
Gusts 34 mph

Today
High -- | Low -- °F
--% Chance of Precip.
Yesterday
High -- | Low -- °F
Precip. -- in
Pressure 29.80 in
Visibility 10.0 miles
Clouds Scattered Clouds 5000 ft
Windchill 32 °F
Dew Point 24 °F
Humidity 52%
Rainfall --
Snow Depth Not available.
7:01 AM 4:06 PM
Waxing Crescent, 15% visible
METAR KIZG 031354Z AUTO 29008KT 10SM SCT050 04/M04 A2979 RMK AO2 SLP091 T00391039
Pressure 29.80 in
Visibility 10.0 miles
Clouds Scattered Clouds 5000 ft
Windchill 32 °F
Dew Point 24 °F
Humidity 52%
Rainfall --
Snow Depth Not available.
7:01 AM 4:06 PM
Waxing Crescent, 15% visible
METAR KIZG 031354Z AUTO 29008KT 10SM SCT050 04/M04 A2979 RMK AO2 SLP091 T00391039

10-Day Weather Forecast

Almanac

Astronomy

Dec. 03, 2016 Rise Set
Actual Time
Civil Twilight
Nautical Twilight
Astronomical Twilight
Moon
Length of Visible Light
Length of Day
Tomorrow will be .
, % of the Moon is Illuminated

Today's Extremes

State Highs State Lows

Community

WunderPhotos

Upload Photos

1,955,446 photos uploaded!

WunderBlog® & News

Nearby

Air Quality

  Air Quality AQ Index Pollutant
Not available.

Snow Depth

Station Depth Elevation

Earthquake Activity

City Distance Mag. Time & Date
Minimum magnitude displayed is 2.5.

Coastal Water Temperatures

Place Temperature

Stations

Nearby Weather Stations

Station Location Temp. Windchill Dew Point Humidity Wind Precip. Elev Updated Type
                   

Watches & Warnings

There are currently no watches in effect.